Terminal Aerodrome Forecast
Issued by NWS

Home | Current Version | Previous Version | Text Only | Print | Product List | Glossary On
Versions: 1 2 3 4 5 6 7 8 9 10 11 12 13 14 15 16 17 18 19 20 21 22 23 24 25 26 27 28 29 30 31 32 33 34 35 36 37
000
FTUS45 KBOU 232234 AAA
TAFBJC
TAF AMD
KBJC 232234Z 2323/2418 03010KT P6SM VCSH SCT090 BKN130
      TEMPO 2323/2401 VRB15G30KT
     FM240200 21010KT P6SM FEW090 SCT130 BKN200
     FM240500 VRB05KT P6SM SCT130 BKN220=

USA.gov is the U.S. government's official web portal to all federal, state and local government web resources and services.